sensor_id;sensor_type;location;lat;lon;timestamp;P1;durP1;ratioP1;P2;durP2;ratioP2
29044;SDS011;16133;49.486;12.176;2023-04-24T00:02:09;3.97;;;2.53;;
29044;SDS011;16133;49.486;12.176;2023-04-24T00:04:36;5.80;;;2.30;;
29044;SDS011;16133;49.486;12.176;2023-04-24T00:07:05;6.20;;;2.47;;
29044;SDS011;16133;49.486;12.176;2023-04-24T00:09:31;3.85;;;2.13;;
29044;SDS011;16133;49.486;12.176;2023-04-24T00:11:57;4.97;;;2.10;;
29044;SDS011;16133;49.486;12.176;2023-04-24T00:14:22;3.75;;;2.42;;
29044;SDS011;16133;49.486;12.176;2023-04-24T00:16:48;4.32;;;2.35;;
29044;SDS011;16133;49.486;12.176;2023-04-24T00:19:13;3.55;;;2.75;;
29044;SDS011;16133;49.486;12.176;2023-04-24T00:21:39;3.97;;;2.17;;
29044;SDS011;16133;49.486;12.176;2023-04-24T00:24:05;3.92;;;2.15;;
29044;SDS011;16133;49.486;12.176;2023-04-24T00:26:30;2.88;;;2.00;;
29044;SDS011;16133;49.486;12.176;2023-04-24T00:28:55;4.03;;;2.10;;
29044;SDS011;16133;49.486;12.176;2023-04-24T00:31:21;3.53;;;2.17;;
29044;SDS011;16133;49.486;12.176;2023-04-24T00:33:46;4.95;;;2.25;;
29044;SDS011;16133;49.486;12.176;2023-04-24T00:36:11;6.53;;;2.53;;
29044;SDS011;16133;49.486;12.176;2023-04-24T00:38:37;2.67;;;1.95;;
29044;SDS011;16133;49.486;12.176;2023-04-24T00:41:02;3.13;;;2.20;;
29044;SDS011;16133;49.486;12.176;2023-04-24T00:43:28;3.03;;;2.10;;
29044;SDS011;16133;49.486;12.176;2023-04-24T00:45:53;3.50;;;1.98;;
29044;SDS011;16133;49.486;12.176;2023-04-24T00:48:19;3.50;;;2.05;;
29044;SDS011;16133;49.486;12.176;2023-04-24T00:50:46;4.32;;;2.42;;
29044;SDS011;16133;49.486;12.176;2023-04-24T00:53:11;3.65;;;2.25;;
29044;SDS011;16133;49.486;12.176;2023-04-24T00:55:37;2.97;;;2.00;;
29044;SDS011;16133;49.486;12.176;2023-04-24T00:58:02;4.10;;;2.50;;
29044;SDS011;16133;49.486;12.176;2023-04-24T01:00:28;3.42;;;2.20;;
29044;SDS011;16133;49.486;12.176;2023-04-24T01:02:53;3.22;;;1.83;;
29044;SDS011;16133;49.486;12.176;2023-04-24T01:05:20;2.47;;;1.73;;
29044;SDS011;16133;49.486;12.176;2023-04-24T01:07:46;4.95;;;2.35;;
29044;SDS011;16133;49.486;12.176;2023-04-24T01:10:14;6.30;;;3.80;;
29044;SDS011;16133;49.486;12.176;2023-04-24T01:12:39;5.70;;;2.83;;
29044;SDS011;16133;49.486;12.176;2023-04-24T01:15:05;3.40;;;2.22;;
29044;SDS011;16133;49.486;12.176;2023-04-24T01:17:31;4.15;;;2.42;;
29044;SDS011;16133;49.486;12.176;2023-04-24T01:19:57;3.40;;;2.40;;
29044;SDS011;16133;49.486;12.176;2023-04-24T01:22:24;4.13;;;2.40;;
29044;SDS011;16133;49.486;12.176;2023-04-24T01:24:51;5.43;;;2.60;;
29044;SDS011;16133;49.486;12.176;2023-04-24T01:27:17;3.13;;;2.10;;
29044;SDS011;16133;49.486;12.176;2023-04-24T01:29:42;3.22;;;2.53;;
29044;SDS011;16133;49.486;12.176;2023-04-24T01:32:08;5.00;;;2.40;;
29044;SDS011;16133;49.486;12.176;2023-04-24T01:34:33;2.85;;;2.10;;
29044;SDS011;16133;49.486;12.176;2023-04-24T01:36:59;4.35;;;2.80;;
29044;SDS011;16133;49.486;12.176;2023-04-24T01:39:25;4.03;;;2.60;;
29044;SDS011;16133;49.486;12.176;2023-04-24T01:41:53;5.18;;;2.60;;
29044;SDS011;16133;49.486;12.176;2023-04-24T01:44:19;4.72;;;2.80;;
29044;SDS011;16133;49.486;12.176;2023-04-24T01:46:45;3.65;;;2.20;;
29044;SDS011;16133;49.486;12.176;2023-04-24T01:49:10;4.10;;;2.67;;
29044;SDS011;16133;49.486;12.176;2023-04-24T01:51:36;4.30;;;2.50;;
29044;SDS011;16133;49.486;12.176;2023-04-24T01:54:01;3.75;;;2.10;;
29044;SDS011;16133;49.486;12.176;2023-04-24T01:56:28;5.32;;;2.00;;
29044;SDS011;16133;49.486;12.176;2023-04-24T01:58:54;3.25;;;2.03;;
29044;SDS011;16133;49.486;12.176;2023-04-24T02:01:21;5.78;;;2.22;;
29044;SDS011;16133;49.486;12.176;2023-04-24T02:03:48;3.45;;;2.17;;
29044;SDS011;16133;49.486;12.176;2023-04-24T02:06:13;3.75;;;2.17;;
29044;SDS011;16133;49.486;12.176;2023-04-24T02:08:38;3.72;;;2.20;;
29044;SDS011;16133;49.486;12.176;2023-04-24T02:11:04;3.20;;;2.08;;
29044;SDS011;16133;49.486;12.176;2023-04-24T02:13:30;3.40;;;2.53;;
29044;SDS011;16133;49.486;12.176;2023-04-24T02:15:57;4.68;;;2.63;;
29044;SDS011;16133;49.486;12.176;2023-04-24T02:18:23;3.42;;;2.08;;
29044;SDS011;16133;49.486;12.176;2023-04-24T02:20:48;4.10;;;2.47;;
29044;SDS011;16133;49.486;12.176;2023-04-24T02:23:14;6.20;;;2.70;;
29044;SDS011;16133;49.486;12.176;2023-04-24T02:25:40;3.97;;;2.58;;
29044;SDS011;16133;49.486;12.176;2023-04-24T02:28:05;3.33;;;2.20;;
29044;SDS011;16133;49.486;12.176;2023-04-24T02:30:31;3.63;;;2.33;;
29044;SDS011;16133;49.486;12.176;2023-04-24T02:32:56;6.05;;;2.45;;
29044;SDS011;16133;49.486;12.176;2023-04-24T02:35:21;4.38;;;2.50;;
29044;SDS011;16133;49.486;12.176;2023-04-24T02:37:47;4.32;;;2.58;;
29044;SDS011;16133;49.486;12.176;2023-04-24T02:40:12;4.30;;;2.28;;
29044;SDS011;16133;49.486;12.176;2023-04-24T02:42:38;4.60;;;2.90;;
29044;SDS011;16133;49.486;12.176;2023-04-24T02:45:03;6.63;;;2.88;;
29044;SDS011;16133;49.486;12.176;2023-04-24T02:47:30;5.22;;;2.92;;
29044;SDS011;16133;49.486;12.176;2023-04-24T02:49:55;5.90;;;2.83;;
29044;SDS011;16133;49.486;12.176;2023-04-24T02:52:20;3.92;;;2.75;;
29044;SDS011;16133;49.486;12.176;2023-04-24T02:54:46;3.80;;;2.60;;
29044;SDS011;16133;49.486;12.176;2023-04-24T02:57:11;5.75;;;3.33;;
29044;SDS011;16133;49.486;12.176;2023-04-24T02:59:36;8.48;;;3.75;;
29044;SDS011;16133;49.486;12.176;2023-04-24T03:02:02;5.25;;;3.53;;
29044;SDS011;16133;49.486;12.176;2023-04-24T03:04:27;4.85;;;3.40;;
29044;SDS011;16133;49.486;12.176;2023-04-24T03:06:53;6.28;;;3.00;;
29044;SDS011;16133;49.486;12.176;2023-04-24T03:09:19;5.20;;;3.47;;
29044;SDS011;16133;49.486;12.176;2023-04-24T03:11:45;5.50;;;3.20;;
29044;SDS011;16133;49.486;12.176;2023-04-24T03:14:11;5.22;;;3.33;;
29044;SDS011;16133;49.486;12.176;2023-04-24T03:16:36;5.60;;;3.30;;
29044;SDS011;16133;49.486;12.176;2023-04-24T03:19:02;4.25;;;2.53;;
29044;SDS011;16133;49.486;12.176;2023-04-24T03:21:27;5.28;;;3.00;;
29044;SDS011;16133;49.486;12.176;2023-04-24T03:23:52;5.35;;;3.17;;
29044;SDS011;16133;49.486;12.176;2023-04-24T03:26:18;7.55;;;3.03;;
29044;SDS011;16133;49.486;12.176;2023-04-24T03:28:43;7.13;;;3.45;;
29044;SDS011;16133;49.486;12.176;2023-04-24T03:31:08;5.28;;;3.20;;
29044;SDS011;16133;49.486;12.176;2023-04-24T03:33:34;6.75;;;3.55;;
29044;SDS011;16133;49.486;12.176;2023-04-24T03:36:01;6.70;;;4.13;;
29044;SDS011;16133;49.486;12.176;2023-04-24T03:38:26;8.10;;;4.10;;
29044;SDS011;16133;49.486;12.176;2023-04-24T03:40:51;6.93;;;3.92;;
29044;SDS011;16133;49.486;12.176;2023-04-24T03:43:17;7.82;;;3.50;;
29044;SDS011;16133;49.486;12.176;2023-04-24T03:45:42;6.68;;;3.55;;
29044;SDS011;16133;49.486;12.176;2023-04-24T03:48:07;5.68;;;3.40;;
29044;SDS011;16133;49.486;12.176;2023-04-24T03:50:33;7.63;;;3.97;;
29044;SDS011;16133;49.486;12.176;2023-04-24T03:52:58;7.60;;;4.30;;
29044;SDS011;16133;49.486;12.176;2023-04-24T03:55:23;10.35;;;5.82;;
29044;SDS011;16133;49.486;12.176;2023-04-24T03:57:49;9.40;;;4.47;;
29044;SDS011;16133;49.486;12.176;2023-04-24T04:00:15;11.40;;;5.35;;
29044;SDS011;16133;49.486;12.176;2023-04-24T04:02:40;9.30;;;4.60;;
29044;SDS011;16133;49.486;12.176;2023-04-24T04:05:06;7.57;;;4.13;;
29044;SDS011;16133;49.486;12.176;2023-04-24T04:07:32;9.95;;;5.05;;
29044;SDS011;16133;49.486;12.176;2023-04-24T04:09:58;10.18;;;5.50;;
29044;SDS011;16133;49.486;12.176;2023-04-24T04:12:23;11.77;;;6.50;;
29044;SDS011;16133;49.486;12.176;2023-04-24T04:14:49;11.57;;;5.93;;
29044;SDS011;16133;49.486;12.176;2023-04-24T04:17:14;15.27;;;6.80;;
29044;SDS011;16133;49.486;12.176;2023-04-24T04:19:40;15.95;;;8.00;;
29044;SDS011;16133;49.486;12.176;2023-04-24T04:22:05;15.55;;;7.80;;
29044;SDS011;16133;49.486;12.176;2023-04-24T04:24:33;17.05;;;7.60;;
29044;SDS011;16133;49.486;12.176;2023-04-24T04:26:58;18.00;;;8.60;;
29044;SDS011;16133;49.486;12.176;2023-04-24T04:29:25;15.85;;;8.07;;
29044;SDS011;16133;49.486;12.176;2023-04-24T04:31:50;24.77;;;9.77;;
29044;SDS011;16133;49.486;12.176;2023-04-24T04:34:16;18.90;;;9.30;;
29044;SDS011;16133;49.486;12.176;2023-04-24T04:36:41;18.20;;;8.00;;
29044;SDS011;16133;49.486;12.176;2023-04-24T04:39:08;34.45;;;13.70;;
29044;SDS011;16133;49.486;12.176;2023-04-24T04:41:33;21.67;;;9.95;;
29044;SDS011;16133;49.486;12.176;2023-04-24T04:44:02;26.13;;;11.10;;
29044;SDS011;16133;49.486;12.176;2023-04-24T04:46:29;34.72;;;14.32;;
29044;SDS011;16133;49.486;12.176;2023-04-24T04:48:57;19.13;;;9.23;;
29044;SDS011;16133;49.486;12.176;2023-04-24T04:51:22;19.80;;;8.40;;
29044;SDS011;16133;49.486;12.176;2023-04-24T04:53:48;21.13;;;10.05;;
29044;SDS011;16133;49.486;12.176;2023-04-24T04:56:13;17.35;;;9.18;;
29044;SDS011;16133;49.486;12.176;2023-04-24T04:58:38;19.02;;;8.75;;
29044;SDS011;16133;49.486;12.176;2023-04-24T05:01:04;20.55;;;9.38;;
29044;SDS011;16133;49.486;12.176;2023-04-24T05:03:29;18.58;;;9.15;;
29044;SDS011;16133;49.486;12.176;2023-04-24T05:05:55;18.63;;;8.23;;
29044;SDS011;16133;49.486;12.176;2023-04-24T05:08:20;18.50;;;8.48;;
29044;SDS011;16133;49.486;12.176;2023-04-24T05:10:45;17.60;;;9.50;;
29044;SDS011;16133;49.486;12.176;2023-04-24T05:13:11;18.13;;;8.45;;
29044;SDS011;16133;49.486;12.176;2023-04-24T05:15:36;14.13;;;7.43;;
29044;SDS011;16133;49.486;12.176;2023-04-24T05:18:04;16.48;;;7.60;;
29044;SDS011;16133;49.486;12.176;2023-04-24T05:20:30;17.05;;;7.45;;
29044;SDS011;16133;49.486;12.176;2023-04-24T05:22:55;15.30;;;7.85;;
29044;SDS011;16133;49.486;12.176;2023-04-24T05:25:21;15.10;;;7.10;;
29044;SDS011;16133;49.486;12.176;2023-04-24T05:27:46;14.27;;;7.22;;
29044;SDS011;16133;49.486;12.176;2023-04-24T05:30:11;18.48;;;7.85;;
29044;SDS011;16133;49.486;12.176;2023-04-24T05:32:37;15.65;;;8.20;;
29044;SDS011;16133;49.486;12.176;2023-04-24T05:35:03;16.10;;;7.90;;
29044;SDS011;16133;49.486;12.176;2023-04-24T05:37:28;21.08;;;9.90;;
29044;SDS011;16133;49.486;12.176;2023-04-24T05:39:54;21.20;;;9.85;;
29044;SDS011;16133;49.486;12.176;2023-04-24T05:42:19;21.52;;;9.55;;
29044;SDS011;16133;49.486;12.176;2023-04-24T05:44:45;19.45;;;8.48;;
29044;SDS011;16133;49.486;12.176;2023-04-24T05:47:10;25.38;;;11.80;;
29044;SDS011;16133;49.486;12.176;2023-04-24T05:49:36;30.27;;;12.93;;
29044;SDS011;16133;49.486;12.176;2023-04-24T05:52:01;27.83;;;12.80;;
29044;SDS011;16133;49.486;12.176;2023-04-24T05:54:29;26.08;;;12.13;;
29044;SDS011;16133;49.486;12.176;2023-04-24T05:56:54;20.20;;;9.75;;
29044;SDS011;16133;49.486;12.176;2023-04-24T05:59:20;17.35;;;9.02;;
29044;SDS011;16133;49.486;12.176;2023-04-24T06:01:46;17.02;;;8.38;;
29044;SDS011;16133;49.486;12.176;2023-04-24T06:04:12;21.35;;;11.15;;
29044;SDS011;16133;49.486;12.176;2023-04-24T06:06:38;23.30;;;9.75;;
29044;SDS011;16133;49.486;12.176;2023-04-24T06:09:04;16.77;;;8.45;;
29044;SDS011;16133;49.486;12.176;2023-04-24T06:11:29;19.50;;;9.38;;
29044;SDS011;16133;49.486;12.176;2023-04-24T06:13:55;15.57;;;8.10;;
29044;SDS011;16133;49.486;12.176;2023-04-24T06:16:21;14.68;;;8.38;;
29044;SDS011;16133;49.486;12.176;2023-04-24T06:18:46;14.18;;;8.10;;
29044;SDS011;16133;49.486;12.176;2023-04-24T06:21:12;14.77;;;9.80;;
29044;SDS011;16133;49.486;12.176;2023-04-24T06:23:38;23.63;;;13.98;;
29044;SDS011;16133;49.486;12.176;2023-04-24T06:26:03;21.38;;;12.40;;
29044;SDS011;16133;49.486;12.176;2023-04-24T06:28:29;21.00;;;12.32;;
29044;SDS011;16133;49.486;12.176;2023-04-24T06:30:54;16.90;;;9.02;;
29044;SDS011;16133;49.486;12.176;2023-04-24T06:33:19;12.85;;;7.75;;
29044;SDS011;16133;49.486;12.176;2023-04-24T06:35:45;12.13;;;7.55;;
29044;SDS011;16133;49.486;12.176;2023-04-24T06:38:10;9.52;;;6.13;;
29044;SDS011;16133;49.486;12.176;2023-04-24T06:40:36;10.32;;;6.55;;
29044;SDS011;16133;49.486;12.176;2023-04-24T06:43:02;9.45;;;5.65;;
29044;SDS011;16133;49.486;12.176;2023-04-24T06:45:28;9.82;;;5.45;;
29044;SDS011;16133;49.486;12.176;2023-04-24T06:47:54;7.35;;;4.72;;
29044;SDS011;16133;49.486;12.176;2023-04-24T06:50:20;8.07;;;4.85;;
29044;SDS011;16133;49.486;12.176;2023-04-24T06:52:45;7.10;;;3.83;;
29044;SDS011;16133;49.486;12.176;2023-04-24T06:55:11;5.85;;;3.33;;
29044;SDS011;16133;49.486;12.176;2023-04-24T06:57:36;4.88;;;3.30;;
29044;SDS011;16133;49.486;12.176;2023-04-24T07:00:02;4.63;;;3.63;;
29044;SDS011;16133;49.486;12.176;2023-04-24T07:02:30;6.55;;;2.90;;
29044;SDS011;16133;49.486;12.176;2023-04-24T07:04:55;4.78;;;3.65;;
29044;SDS011;16133;49.486;12.176;2023-04-24T07:07:21;5.03;;;3.30;;
29044;SDS011;16133;49.486;12.176;2023-04-24T07:09:48;4.72;;;2.97;;
29044;SDS011;16133;49.486;12.176;2023-04-24T07:12:14;7.28;;;3.25;;
29044;SDS011;16133;49.486;12.176;2023-04-24T07:14:39;4.85;;;3.40;;
29044;SDS011;16133;49.486;12.176;2023-04-24T07:17:05;4.85;;;2.75;;
29044;SDS011;16133;49.486;12.176;2023-04-24T07:19:31;5.18;;;3.30;;
29044;SDS011;16133;49.486;12.176;2023-04-24T07:21:58;4.90;;;3.28;;
29044;SDS011;16133;49.486;12.176;2023-04-24T07:24:24;4.28;;;3.47;;
29044;SDS011;16133;49.486;12.176;2023-04-24T07:26:50;7.30;;;3.08;;
29044;SDS011;16133;49.486;12.176;2023-04-24T07:29:16;3.50;;;2.67;;
29044;SDS011;16133;49.486;12.176;2023-04-24T07:31:41;3.55;;;2.83;;
29044;SDS011;16133;49.486;12.176;2023-04-24T07:34:07;5.90;;;3.30;;
29044;SDS011;16133;49.486;12.176;2023-04-24T07:36:32;3.85;;;2.60;;
29044;SDS011;16133;49.486;12.176;2023-04-24T07:38:58;8.80;;;5.03;;
29044;SDS011;16133;49.486;12.176;2023-04-24T07:41:23;11.93;;;5.78;;
29044;SDS011;16133;49.486;12.176;2023-04-24T07:43:49;4.63;;;3.15;;
29044;SDS011;16133;49.486;12.176;2023-04-24T07:46:14;5.50;;;2.88;;
29044;SDS011;16133;49.486;12.176;2023-04-24T07:48:40;4.18;;;2.88;;
29044;SDS011;16133;49.486;12.176;2023-04-24T07:51:05;3.20;;;2.60;;
29044;SDS011;16133;49.486;12.176;2023-04-24T07:53:31;2.30;;;1.77;;
29044;SDS011;16133;49.486;12.176;2023-04-24T07:55:56;4.10;;;2.00;;
29044;SDS011;16133;49.486;12.176;2023-04-24T07:58:22;2.55;;;2.00;;
29044;SDS011;16133;49.486;12.176;2023-04-24T08:00:47;3.22;;;2.05;;
29044;SDS011;16133;49.486;12.176;2023-04-24T08:03:13;3.72;;;1.77;;
29044;SDS011;16133;49.486;12.176;2023-04-24T08:05:38;1.65;;;1.35;;
29044;SDS011;16133;49.486;12.176;2023-04-24T08:08:04;3.50;;;1.63;;
29044;SDS011;16133;49.486;12.176;2023-04-24T08:10:29;6.15;;;2.20;;
29044;SDS011;16133;49.486;12.176;2023-04-24T08:12:55;4.03;;;1.55;;
29044;SDS011;16133;49.486;12.176;2023-04-24T08:15:20;1.85;;;1.30;;
29044;SDS011;16133;49.486;12.176;2023-04-24T08:17:46;2.47;;;1.42;;
29044;SDS011;16133;49.486;12.176;2023-04-24T08:20:11;3.72;;;1.83;;
29044;SDS011;16133;49.486;12.176;2023-04-24T08:22:40;3.15;;;1.10;;
29044;SDS011;16133;49.486;12.176;2023-04-24T08:25:06;0.90;;;0.70;;
29044;SDS011;16133;49.486;12.176;2023-04-24T08:27:32;1.52;;;0.80;;
29044;SDS011;16133;49.486;12.176;2023-04-24T08:29:58;0.77;;;0.70;;
29044;SDS011;16133;49.486;12.176;2023-04-24T08:32:26;1.98;;;1.20;;
29044;SDS011;16133;49.486;12.176;2023-04-24T08:34:58;2.92;;;1.20;;
29044;SDS011;16133;49.486;12.176;2023-04-24T08:37:24;1.08;;;0.70;;
29044;SDS011;16133;49.486;12.176;2023-04-24T08:39:50;2.75;;;1.15;;
29044;SDS011;16133;49.486;12.176;2023-04-24T08:42:17;0.75;;;0.70;;
29044;SDS011;16133;49.486;12.176;2023-04-24T08:44:43;1.33;;;0.60;;
29044;SDS011;16133;49.486;12.176;2023-04-24T08:47:09;1.20;;;0.77;;
29044;SDS011;16133;49.486;12.176;2023-04-24T08:49:35;1.27;;;1.00;;
29044;SDS011;16133;49.486;12.176;2023-04-24T08:52:02;0.95;;;0.73;;
29044;SDS011;16133;49.486;12.176;2023-04-24T08:54:28;1.30;;;0.70;;
29044;SDS011;16133;49.486;12.176;2023-04-24T08:56:54;1.23;;;1.00;;
29044;SDS011;16133;49.486;12.176;2023-04-24T08:59:23;0.77;;;0.70;;
29044;SDS011;16133;49.486;12.176;2023-04-24T09:01:49;0.77;;;0.60;;
29044;SDS011;16133;49.486;12.176;2023-04-24T09:04:16;2.42;;;0.90;;
29044;SDS011;16133;49.486;12.176;2023-04-24T09:06:44;0.85;;;0.77;;
29044;SDS011;16133;49.486;12.176;2023-04-24T09:09:10;1.60;;;0.90;;
29044;SDS011;16133;49.486;12.176;2023-04-24T09:11:36;3.40;;;1.15;;
29044;SDS011;16133;49.486;12.176;2023-04-24T09:14:02;0.60;;;0.60;;
29044;SDS011;16133;49.486;12.176;2023-04-24T09:16:28;1.77;;;0.63;;
29044;SDS011;16133;49.486;12.176;2023-04-24T09:18:54;3.80;;;0.75;;
29044;SDS011;16133;49.486;12.176;2023-04-24T09:21:21;1.17;;;0.70;;
29044;SDS011;16133;49.486;12.176;2023-04-24T09:23:57;0.63;;;0.50;;
29044;SDS011;16133;49.486;12.176;2023-04-24T09:26:29;1.23;;;0.70;;
29044;SDS011;16133;49.486;12.176;2023-04-24T09:28:56;0.68;;;0.60;;
29044;SDS011;16133;49.486;12.176;2023-04-24T09:31:22;0.80;;;0.65;;
29044;SDS011;16133;49.486;12.176;2023-04-24T09:33:55;3.05;;;0.77;;
29044;SDS011;16133;49.486;12.176;2023-04-24T09:36:54;1.00;;;0.60;;
29044;SDS011;16133;49.486;12.176;2023-04-24T09:39:13;1.15;;;0.90;;
29044;SDS011;16133;49.486;12.176;2023-04-24T09:41:54;2.20;;;0.90;;
29044;SDS011;16133;49.486;12.176;2023-04-24T09:44:28;4.10;;;1.92;;
29044;SDS011;16133;49.486;12.176;2023-04-24T09:46:55;1.48;;;0.88;;
29044;SDS011;16133;49.486;12.176;2023-04-24T09:51:50;1.02;;;0.77;;
29044;SDS011;16133;49.486;12.176;2023-04-24T09:54:17;2.03;;;0.85;;
29044;SDS011;16133;49.486;12.176;2023-04-24T09:56:45;1.05;;;0.90;;
29044;SDS011;16133;49.486;12.176;2023-04-24T09:59:13;1.40;;;0.98;;
29044;SDS011;16133;49.486;12.176;2023-04-24T10:01:39;1.77;;;1.02;;
29044;SDS011;16133;49.486;12.176;2023-04-24T10:04:14;1.80;;;0.90;;
29044;SDS011;16133;49.486;12.176;2023-04-24T10:06:41;1.33;;;0.95;;
29044;SDS011;16133;49.486;12.176;2023-04-24T10:09:08;1.63;;;0.90;;
29044;SDS011;16133;49.486;12.176;2023-04-24T10:11:36;0.93;;;0.70;;
29044;SDS011;16133;49.486;12.176;2023-04-24T10:14:02;2.15;;;1.13;;
29044;SDS011;16133;49.486;12.176;2023-04-24T10:16:28;2.60;;;1.33;;
29044;SDS011;16133;49.486;12.176;2023-04-24T10:18:55;5.78;;;1.17;;
29044;SDS011;16133;49.486;12.176;2023-04-24T10:21:24;1.75;;;1.13;;
29044;SDS011;16133;49.486;12.176;2023-04-24T10:23:51;2.47;;;0.88;;
29044;SDS011;16133;49.486;12.176;2023-04-24T10:26:17;1.30;;;0.80;;
29044;SDS011;16133;49.486;12.176;2023-04-24T10:28:47;1.13;;;1.00;;
29044;SDS011;16133;49.486;12.176;2023-04-24T10:31:13;2.65;;;0.80;;
29044;SDS011;16133;49.486;12.176;2023-04-24T10:33:42;0.93;;;0.85;;
29044;SDS011;16133;49.486;12.176;2023-04-24T10:36:10;2.65;;;1.00;;
29044;SDS011;16133;49.486;12.176;2023-04-24T10:38:38;1.73;;;1.08;;
29044;SDS011;16133;49.486;12.176;2023-04-24T10:41:07;1.77;;;1.40;;
29044;SDS011;16133;49.486;12.176;2023-04-24T10:43:34;3.22;;;1.13;;
29044;SDS011;16133;49.486;12.176;2023-04-24T10:46:03;2.88;;;1.13;;
29044;SDS011;16133;49.486;12.176;2023-04-24T10:48:31;1.95;;;1.50;;
29044;SDS011;16133;49.486;12.176;2023-04-24T10:50:57;1.52;;;1.00;;
29044;SDS011;16133;49.486;12.176;2023-04-24T10:53:24;1.27;;;1.00;;
29044;SDS011;16133;49.486;12.176;2023-04-24T10:56:06;1.25;;;0.80;;
29044;SDS011;16133;49.486;12.176;2023-04-24T11:01:32;0.98;;;0.90;;
29044;SDS011;16133;49.486;12.176;2023-04-24T11:04:01;1.60;;;1.08;;
29044;SDS011;16133;49.486;12.176;2023-04-24T11:06:34;1.02;;;0.93;;
29044;SDS011;16133;49.486;12.176;2023-04-24T11:11:31;3.80;;;1.92;;
29044;SDS011;16133;49.486;12.176;2023-04-24T11:16:29;1.35;;;0.98;;
29044;SDS011;16133;49.486;12.176;2023-04-24T11:19:05;1.40;;;0.93;;
29044;SDS011;16133;49.486;12.176;2023-04-24T11:21:44;2.00;;;1.40;;
29044;SDS011;16133;49.486;12.176;2023-04-24T11:24:27;2.30;;;1.00;;
29044;SDS011;16133;49.486;12.176;2023-04-24T11:29:24;2.75;;;0.68;;
29044;SDS011;16133;49.486;12.176;2023-04-24T11:34:49;2.80;;;1.17;;
29044;SDS011;16133;49.486;12.176;2023-04-24T11:37:16;2.45;;;1.10;;
29044;SDS011;16133;49.486;12.176;2023-04-24T11:39:41;2.30;;;0.85;;
29044;SDS011;16133;49.486;12.176;2023-04-24T11:42:08;1.38;;;1.02;;
29044;SDS011;16133;49.486;12.176;2023-04-24T11:44:34;1.20;;;1.10;;
29044;SDS011;16133;49.486;12.176;2023-04-24T11:47:02;2.05;;;1.20;;
29044;SDS011;16133;49.486;12.176;2023-04-24T11:49:32;2.47;;;1.00;;
29044;SDS011;16133;49.486;12.176;2023-04-24T11:51:57;1.15;;;0.98;;
29044;SDS011;16133;49.486;12.176;2023-04-24T11:54:24;0.93;;;0.90;;
29044;SDS011;16133;49.486;12.176;2023-04-24T11:56:50;1.67;;;0.90;;
29044;SDS011;16133;49.486;12.176;2023-04-24T11:59:15;3.33;;;1.33;;
29044;SDS011;16133;49.486;12.176;2023-04-24T12:01:47;2.33;;;1.50;;
29044;SDS011;16133;49.486;12.176;2023-04-24T12:04:14;1.52;;;1.42;;
29044;SDS011;16133;49.486;12.176;2023-04-24T12:09:28;3.60;;;1.15;;
29044;SDS011;16133;49.486;12.176;2023-04-24T12:11:54;2.55;;;1.42;;
29044;SDS011;16133;49.486;12.176;2023-04-24T12:14:23;2.10;;;0.98;;
29044;SDS011;16133;49.486;12.176;2023-04-24T12:16:49;1.83;;;1.02;;
29044;SDS011;16133;49.486;12.176;2023-04-24T12:19:20;3.47;;;1.08;;
29044;SDS011;16133;49.486;12.176;2023-04-24T12:21:58;1.20;;;1.05;;
29044;SDS011;16133;49.486;12.176;2023-04-24T12:24:28;1.17;;;0.80;;
29044;SDS011;16133;49.486;12.176;2023-04-24T12:26:55;3.53;;;0.90;;
29044;SDS011;16133;49.486;12.176;2023-04-24T12:29:21;2.08;;;0.80;;
29044;SDS011;16133;49.486;12.176;2023-04-24T12:31:46;1.30;;;0.70;;
29044;SDS011;16133;49.486;12.176;2023-04-24T12:34:21;0.95;;;0.85;;
29044;SDS011;16133;49.486;12.176;2023-04-24T12:36:48;1.10;;;0.70;;
29044;SDS011;16133;49.486;12.176;2023-04-24T12:39:17;1.05;;;0.75;;
29044;SDS011;16133;49.486;12.176;2023-04-24T12:41:54;1.02;;;0.80;;
29044;SDS011;16133;49.486;12.176;2023-04-24T12:44:31;1.00;;;0.60;;
29044;SDS011;16133;49.486;12.176;2023-04-24T12:47:01;1.65;;;0.95;;
29044;SDS011;16133;49.486;12.176;2023-04-24T12:49:27;0.80;;;0.77;;
29044;SDS011;16133;49.486;12.176;2023-04-24T12:51:55;2.38;;;0.80;;
29044;SDS011;16133;49.486;12.176;2023-04-24T12:54:20;0.60;;;0.55;;
29044;SDS011;16133;49.486;12.176;2023-04-24T12:56:46;1.75;;;0.73;;
29044;SDS011;16133;49.486;12.176;2023-04-24T12:59:11;2.88;;;1.15;;
29044;SDS011;16133;49.486;12.176;2023-04-24T13:01:36;1.90;;;0.88;;
29044;SDS011;16133;49.486;12.176;2023-04-24T13:04:02;3.40;;;1.08;;
29044;SDS011;16133;49.486;12.176;2023-04-24T13:06:27;1.45;;;0.65;;
29044;SDS011;16133;49.486;12.176;2023-04-24T13:08:53;1.65;;;1.13;;
29044;SDS011;16133;49.486;12.176;2023-04-24T13:11:19;1.83;;;1.20;;
29044;SDS011;16133;49.486;12.176;2023-04-24T13:13:46;1.58;;;1.00;;
29044;SDS011;16133;49.486;12.176;2023-04-24T13:16:11;1.40;;;1.05;;
29044;SDS011;16133;49.486;12.176;2023-04-24T13:18:37;1.38;;;1.27;;
29044;SDS011;16133;49.486;12.176;2023-04-24T13:21:02;2.60;;;0.80;;
29044;SDS011;16133;49.486;12.176;2023-04-24T13:23:28;1.10;;;0.93;;
29044;SDS011;16133;49.486;12.176;2023-04-24T13:25:54;1.70;;;1.30;;
29044;SDS011;16133;49.486;12.176;2023-04-24T13:28:22;1.50;;;1.30;;
29044;SDS011;16133;49.486;12.176;2023-04-24T13:30:48;1.40;;;1.10;;
29044;SDS011;16133;49.486;12.176;2023-04-24T13:33:13;1.20;;;1.02;;
29044;SDS011;16133;49.486;12.176;2023-04-24T13:35:39;2.00;;;1.60;;
29044;SDS011;16133;49.486;12.176;2023-04-24T13:38:04;3.25;;;1.35;;
29044;SDS011;16133;49.486;12.176;2023-04-24T13:40:31;2.03;;;1.10;;
29044;SDS011;16133;49.486;12.176;2023-04-24T13:42:57;2.00;;;1.23;;
29044;SDS011;16133;49.486;12.176;2023-04-24T13:45:22;1.20;;;1.10;;
29044;SDS011;16133;49.486;12.176;2023-04-24T13:47:48;1.25;;;1.10;;
29044;SDS011;16133;49.486;12.176;2023-04-24T13:50:13;1.80;;;1.02;;
29044;SDS011;16133;49.486;12.176;2023-04-24T13:52:38;3.08;;;1.98;;
29044;SDS011;16133;49.486;12.176;2023-04-24T13:55:04;2.78;;;1.52;;
29044;SDS011;16133;49.486;12.176;2023-04-24T13:57:30;0.77;;;0.75;;
29044;SDS011;16133;49.486;12.176;2023-04-24T13:59:57;2.10;;;0.95;;
29044;SDS011;16133;49.486;12.176;2023-04-24T14:02:26;2.50;;;0.98;;
29044;SDS011;16133;49.486;12.176;2023-04-24T14:04:52;3.65;;;1.75;;
29044;SDS011;16133;49.486;12.176;2023-04-24T14:07:17;1.20;;;1.10;;
29044;SDS011;16133;49.486;12.176;2023-04-24T14:09:42;4.03;;;1.08;;
29044;SDS011;16133;49.486;12.176;2023-04-24T14:12:08;2.90;;;1.70;;
29044;SDS011;16133;49.486;12.176;2023-04-24T14:14:33;1.95;;;1.25;;
29044;SDS011;16133;49.486;12.176;2023-04-24T14:16:59;1.60;;;1.35;;
29044;SDS011;16133;49.486;12.176;2023-04-24T14:19:25;2.22;;;1.10;;
29044;SDS011;16133;49.486;12.176;2023-04-24T14:21:50;1.77;;;1.17;;
29044;SDS011;16133;49.486;12.176;2023-04-24T14:24:16;1.45;;;0.98;;
29044;SDS011;16133;49.486;12.176;2023-04-24T14:26:41;1.35;;;1.10;;
29044;SDS011;16133;49.486;12.176;2023-04-24T14:29:06;1.95;;;1.10;;
29044;SDS011;16133;49.486;12.176;2023-04-24T14:31:32;3.45;;;1.35;;
29044;SDS011;16133;49.486;12.176;2023-04-24T14:33:57;2.58;;;1.70;;
29044;SDS011;16133;49.486;12.176;2023-04-24T14:36:23;7.20;;;2.60;;
29044;SDS011;16133;49.486;12.176;2023-04-24T14:38:49;2.83;;;1.35;;
29044;SDS011;16133;49.486;12.176;2023-04-24T14:41:14;3.17;;;1.30;;
29044;SDS011;16133;49.486;12.176;2023-04-24T14:43:40;1.65;;;1.25;;
29044;SDS011;16133;49.486;12.176;2023-04-24T14:46:05;1.85;;;1.15;;